ADDS TAF Data INFO

IDs: Format: Raw Decoded Include METARs

Data at: 2114 UTC 23 Oct 2014

Region: TOP
KATL 231942Z 2320/2424 30007KT P6SM FEW250
  FM240100 32003KT P6SM BKN200
  FM241600 32005KT P6SM SKC


KBOS 232001Z 2320/2424 01022G36KT 4SM -SHRA BR BKN008 OVC015
  FM232300 01020G32KT 5SM BR OVC008
  FM240400 01016G29KT P6SM OVC008
  FM241200 33012G21KT P6SM OVC015
  FM241600 33012KT P6SM OVC025
  FM242000 32012KT P6SM OVC035


KBWI 232050Z 2321/2424 32013G23KT P6SM BKN050
  FM240300 33010KT P6SM SCT050
  FM240600 31011KT P6SM BKN050
  FM240900 31010KT P6SM SCT050
  FM241200 31011KT P6SM BKN050
  FM241500 32011KT P6SM FEW250


KCLE 232108Z 2321/2424 30003KT P6SM FEW025
  FM240100 24005KT P6SM BKN250
  FM241500 24006KT P6SM SCT045 BKN150
  FM242000 26008KT P6SM BKN045


KCLT 232051Z 2321/2418 33004KT P6SM SKC
  FM241600 28003KT P6SM SCT160


KCVG 232059Z 2321/2424 VRB03KT P6SM SCT150 BKN250
  FM232300 VRB03KT P6SM BKN150
  FM241600 24005KT P6SM BKN050


KDCA 232050Z 2321/2418 32012G24KT P6SM BKN050
  FM232200 32012KT P6SM SCT050
  FM240600 31010KT P6SM BKN050
  FM240900 31009KT P6SM SCT050
  FM241300 31010KT P6SM SCT250


KDEN 232100Z 2321/2424 26008KT P6SM FEW120 SCT220
  FM240200 18007KT P6SM FEW120 SCT220
  FM240700 24010KT P6SM FEW110 BKN200
  FM241500 20008KT P6SM SCT200
  FM242200 VRB05KT P6SM FEW200


KDFW 232058Z 2321/2424 16008KT P6SM SCT070

KDTW 232050Z 2321/2424 27005KT P6SM SCT250
  FM240800 21005KT P6SM OVC120
  FM241600 21007KT P6SM BKN025 OVC050
  FM242200 24005KT P6SM OVC035


KEWR 232043Z 2321/2424 33015G23KT P6SM VCSH SCT015 BKN020 OVC035
  TEMPO 2321/2323 SCT020 OVC035
  FM232300 33016G23KT P6SM BKN040 BKN080
  FM240400 32012KT P6SM BKN050 BKN080
  FM241400 32015G22KT P6SM BKN050
  FM242200 32012G18KT P6SM SCT050


KFLL 232103Z 2321/2418 06012G18KT P6SM VCSH BKN025 OVC040
  FM241200 07015G25KT P6SM VCSH SCT025 BKN070


KIAD 232050Z 2321/2424 32015G25KT P6SM SCT050
  FM240300 32011KT P6SM SCT050
  FM241000 31010KT P6SM SCT250
  FM241800 31011G19KT P6SM SCT250
  FM242200 31009KT P6SM FEW250


KIAH 232036Z 2321/2424 06009KT P6SM SCT140
  FM240100 VRB04KT P6SM SKC
  FM241400 04006KT P6SM SKC


KJFK 232043Z 2321/2424 34019G28KT P6SM VCSH BKN020 BKN025 OVC040
  TEMPO 2321/2323 SCT020 OVC040
  FM232300 33019G27KT P6SM BKN040 BKN070
  FM240500 33014KT P6SM BKN050 BKN080
  FM241400 32013G23KT P6SM BKN050
  FM242200 32013G19KT P6SM SCT050


KLAS 232102Z 2321/2418 10006KT P6SM BKN250
  FM240400 21008KT P6SM SKC


KLAX 232040Z 2321/2424 27012KT P6SM SCT250
  FM240300 25006KT P6SM SKC
  FM240800 VRB03KT P6SM SKC
  FM241700 26008KT P6SM SKC


KLGA 232043Z 2321/2418 34019G28KT P6SM VCSH SCT015 BKN025 OVC040
  TEMPO 2321/2323 SCT025 OVC040
  FM232300 34019G28KT P6SM BKN040 BKN080
  FM240500 33016G22KT P6SM BKN050 BKN080
  FM241400 32014G21KT P6SM BKN050


KMCO 232050Z 2321/2418 05009KT P6SM FEW050 FEW250
  FM240400 01006KT P6SM SCT250
  FM241400 03010KT P6SM FEW035


KMDW 231947Z 2320/2418 22012G19KT P6SM BKN200
  FM240000 20008KT P6SM VCSH SCT035 OVC060
  FM240200 24005KT P6SM BKN025 OVC040
  FM240300 21006KT P6SM SCT010 BKN015
  FM241400 23005KT P6SM SCT010 BKN020


KMEM 232051Z 2321/2418 36003KT P6SM BKN150 OVC250
  FM240300 00000KT P6SM SCT080
  FM240600 00000KT P6SM SKC


KMIA 232101Z 2321/2418 06012G18KT P6SM VCSH SCT025 BKN040
  FM241300 05012G22KT P6SM VCSH SCT025 BKN070


KMSP 232059Z 2321/2424 23005KT P6SM SKC
  FM240900 18004KT P6SM SKC
  FM241600 20007KT P6SM SKC


KORD 231947Z 2320/2424 20011G17KT P6SM BKN200
  FM240000 20008KT P6SM VCSH SCT035 OVC060
  FM240200 22005KT P6SM BKN025 OVC040
  FM240300 21006KT P6SM SCT010 BKN015
  FM241400 23005KT P6SM SCT010 BKN020
  FM241800 23008KT P6SM SCT025


KPDX 232018Z 2320/2418 20007KT 5SM -TSRA BR BKN030CB OVC050
  FM232030 20007KT P6SM -SHRA SCT025 BKN050
  FM240500 VRB03KT P6SM FEW025 BKN050
  FM241200 VRB03KT 6SM BR FEW008 SCT012 BKN200
  FM241700 10005KT P6SM FEW025 BKN200


KPHL 232032Z 2321/2424 32014G24KT P6SM FEW025 OVC045
  FM240000 32010KT P6SM BKN045
  FM241400 32012G20KT P6SM BKN045
  FM241700 32010G18KT P6SM SCT045


KPHX 232059Z 2321/2418 10005KT P6SM FEW250
  FM232200 26005KT P6SM FEW250
  FM240500 10005KT P6SM SKC


KPIT 232102Z 2321/2424 32012KT P6SM SKC
  FM232300 29005KT P6SM FEW200


KSAN 232029Z 2320/2424 31007KT P6SM FEW200
  FM240200 VRB03KT P6SM SKC
  TEMPO 2410/2414 5SM BR FEW002
  FM241900 27007KT P6SM SKC


KSEA 232103Z 2321/2424 19015KT P6SM VCTS SCT035CB BKN060
  TEMPO 2321/2324 19013G23KT -SHRA BKN035 OVC060
  FM240000 19010KT P6SM SCT035 BKN060
  TEMPO 2400/2404 -SHRA
  FM240400 17007KT P6SM SCT028 BKN060 BKN110
  FM241200 11005KT P6SM SCT060 BKN110
  FM241800 05008KT P6SM SCT110 BKN200


KSFO 231735Z 2318/2424 07003KT P6SM FEW010 BKN180
  FM232000 28010KT P6SM BKN150
  FM240500 31005KT P6SM SCT020 BKN150
  FM240700 VRB03KT P6SM OVC015
  FM241400 12005KT P6SM OVC015
  FM241800 19007KT P6SM SCT015


KSLC 232059Z 2321/2424 34008KT P6SM SCT120 BKN200
  FM240300 16008KT P6SM FEW120 SCT200
  FM241700 18011G18KT P6SM SKC


KSTL 232050Z 2321/2424 18005KT P6SM BKN050
  FM240400 22004KT P6SM BKN030
  TEMPO 2409/2413 5SM BR BKN015
  FM241500 20005KT P6SM FEW015 SCT030


KTPA 232100Z 2321/2418 05006KT P6SM SKC
  FM240000 04005KT P6SM FEW250
  FM241400 03008KT P6SM FEW250



Page loaded:  21:14 UTC  |   02:14 PM Pacific  |   03:14 PM Mountain  |   04:14 PM Central  |   05:14 PM Eastern

 

ADVISORIES

FORECASTS

FORECASTS

OBSERVATIONS

USER TOOLS

ABOUT US